Time;durP1;ratioP1;P1;durP2;ratioP2;P2;SDS_P1;SDS_P2;PMS_P1;PMS_P2;Temp;Humidity;BMP_temperature;BMP_pressure;BME280_temperature;BME280_humidity;BME280_pressure;Samples;Min_cycle;Max_cycle;Signal;HPM_P1;HPM_P2
2021/11/20 00:01:53;;;;;;;5.22;2.70;;;;;;;;;;5052902;28;20040;-36
2021/11/20 00:04:19;;;;;;;5.00;2.60;;;;;;;;;;5052541;28;20060;-36
2021/11/20 00:06:46;;;;;;;7.40;4.00;;;;;;;;;;5052539;28;20118;-36
2021/11/20 00:09:14;;;;;;;4.65;2.28;;;;;;;;;;5052422;28;20017;-36
2021/11/20 00:11:40;;;;;;;6.25;2.83;;;;;;;;;;5052234;28;20484;-40
2021/11/20 00:14:06;;;;;;;3.65;2.67;;;;;;;;;;5052389;28;20099;-36
2021/11/20 00:16:32;;;;;;;6.63;3.30;;;;;;;;;;5052396;28;20032;-36
2021/11/20 00:18:59;;;;;;;8.02;3.83;;;;;;;;;;5052234;28;20024;-36
2021/11/20 00:21:54;;;;;;;7.53;2.88;;;;;;;;;;5052280;28;20021;-36
2021/11/20 00:24:25;;;;;;;7.38;2.72;;;;;;;;;;5029604;28;20071;-36
2021/11/20 00:26:51;;;;;;;3.75;2.53;;;;;;;;;;5052075;28;20043;-36
2021/11/20 00:31:44;;;;;;;6.97;3.70;;;;;;;;;;5050751;28;20093;-36
2021/11/20 00:34:11;;;;;;;3.85;2.40;;;;;;;;;;5050573;28;20025;-36
2021/11/20 00:36:37;;;;;;;8.60;3.47;;;;;;;;;;5050779;28;20037;-36
2021/11/20 00:39:05;;;;;;;4.85;3.55;;;;;;;;;;5033911;28;20024;-36
2021/11/20 00:41:30;;;;;;;7.15;2.88;;;;;;;;;;5052125;28;20111;-36
2021/11/20 00:43:56;;;;;;;4.97;2.72;;;;;;;;;;5033639;28;20440;-36
2021/11/20 00:46:23;;;;;;;5.10;2.88;;;;;;;;;;5051602;28;20025;-36
2021/11/20 00:48:49;;;;;;;4.22;2.58;;;;;;;;;;5050452;28;20032;-36
2021/11/20 00:51:16;;;;;;;7.65;2.97;;;;;;;;;;5051829;28;20041;-36
2021/11/20 00:53:42;;;;;;;3.45;2.63;;;;;;;;;;5051853;28;20094;-37
2021/11/20 00:56:09;;;;;;;4.70;2.60;;;;;;;;;;5051582;28;20483;-36
2021/11/20 00:58:36;;;;;;;5.68;2.92;;;;;;;;;;5050246;28;20025;-36
2021/11/20 01:01:03;;;;;;;6.00;2.97;;;;;;;;;;5049977;28;20515;-36
2021/11/20 01:03:29;;;;;;;5.65;3.00;;;;;;;;;;5050293;28;20060;-36
2021/11/20 01:05:55;;;;;;;5.07;2.90;;;;;;;;;;5033529;28;20059;-36
2021/11/20 01:08:21;;;;;;;5.65;2.95;;;;;;;;;;5050021;28;20056;-36
2021/11/20 01:10:53;;;;;;;5.78;3.47;;;;;;;;;;5051258;28;20074;-36
2021/11/20 01:13:19;;;;;;;6.88;4.15;;;;;;;;;;5050054;28;20029;-36
2021/11/20 01:15:53;;;;;;;6.05;3.00;;;;;;;;;;5033416;28;20024;-36
2021/11/20 01:18:20;;;;;;;5.45;2.78;;;;;;;;;;5033421;28;20800;-36
2021/11/20 01:20:46;;;;;;;5.07;2.83;;;;;;;;;;5033346;28;20021;-36
2021/11/20 01:23:13;;;;;;;3.53;2.53;;;;;;;;;;5051150;28;20025;-36
2021/11/20 01:25:45;;;;;;;;;;;;;;;;;;5033797;28;20017;-36
2021/11/20 01:28:19;;;;;;;6.15;3.13;;;;;;;;;;5033369;28;19908;-36
2021/11/20 01:30:57;;;;;;;5.13;2.90;;;;;;;;;;5033087;28;20044;-36
2021/11/20 01:33:36;;;;;;;5.72;2.42;;;;;;;;;;5033624;28;20547;-36
2021/11/20 01:36:03;;;;;;;4.35;2.78;;;;;;;;;;5033141;28;20399;-36
2021/11/20 01:38:29;;;;;;;6.60;3.70;;;;;;;;;;5033207;28;20234;-36
2021/11/20 01:41:04;;;;;;;6.60;3.42;;;;;;;;;;5033140;28;20507;-36
2021/11/20 01:43:53;;;;;;;12.68;4.28;;;;;;;;;;5049792;28;20032;-36
2021/11/20 01:46:25;;;;;;;4.47;2.58;;;;;;;;;;5033049;28;20052;-36
2021/11/20 01:48:50;;;;;;;5.03;2.92;;;;;;;;;;5049730;28;20029;-36
2021/11/20 01:51:25;;;;;;;6.47;2.63;;;;;;;;;;5033017;28;20090;-36
2021/11/20 01:54:09;;;;;;;7.53;3.40;;;;;;;;;;5049695;28;20037;-36
2021/11/20 01:56:56;;;;;;;8.23;3.90;;;;;;;;;;5036981;28;20112;-36
2021/11/20 01:59:25;;;;;;;9.02;4.55;;;;;;;;;;5053366;28;20024;-37
2021/11/20 02:02:21;;;;;;;9.70;3.15;;;;;;;;;;5046582;28;20045;-36
2021/11/20 02:05:00;;;;;;;7.50;3.47;;;;;;;;;;5053548;28;20033;-36
2021/11/20 02:07:41;;;;;;;6.57;3.08;;;;;;;;;;5036947;28;20386;-37
2021/11/20 02:10:14;;;;;;;5.30;2.95;;;;;;;;;;5054891;28;20033;-36
2021/11/20 02:12:56;;;;;;;4.18;2.60;;;;;;;;;;5036634;28;20044;-35
2021/11/20 02:15:24;;;;;;;7.30;3.63;;;;;;;;;;5053360;28;20025;-36
2021/11/20 02:17:52;;;;;;;5.50;2.55;;;;;;;;;;5036554;28;20078;-36
2021/11/20 02:20:39;;;;;;;6.30;2.53;;;;;;;;;;5036679;28;20033;-36
2021/11/20 02:23:08;;;;;;;6.60;3.78;;;;;;;;;;5036627;28;20029;-36
2021/11/20 02:25:33;;;;;;;11.90;4.22;;;;;;;;;;5053240;28;20039;-36
2021/11/20 02:28:03;;;;;;;6.50;3.38;;;;;;;;;;5036240;28;20566;-36
2021/11/20 02:30:34;;;;;;;11.10;3.08;;;;;;;;;;5036450;28;20495;-36
2021/11/20 02:33:08;;;;;;;6.85;3.22;;;;;;;;;;5036473;28;20382;-36
2021/11/20 02:35:57;;;;;;;6.35;3.33;;;;;;;;;;5053028;28;20029;-36
2021/11/20 02:38:27;;;;;;;5.75;3.25;;;;;;;;;;5036106;28;20029;-36
2021/11/20 02:40:53;;;;;;;6.32;2.88;;;;;;;;;;5052867;28;20033;-38
2021/11/20 02:43:20;;;;;;;5.32;2.83;;;;;;;;;;5053964;28;20112;-36
2021/11/20 02:46:14;;;;;;;3.97;2.40;;;;;;;;;;5050004;28;20044;-36
2021/11/20 02:48:42;;;;;;;5.82;3.28;;;;;;;;;;5036086;28;20281;-36
2021/11/20 02:51:27;;;;;;;5.82;2.75;;;;;;;;;;5053895;28;20033;-37
2021/11/20 02:54:08;;;;;;;5.97;2.92;;;;;;;;;;5036192;28;20024;-36
2021/11/20 02:56:37;;;;;;;7.15;3.45;;;;;;;;;;5035841;28;20394;-36
2021/11/20 02:59:03;;;;;;;6.05;2.97;;;;;;;;;;5052554;28;20075;-37
2021/11/20 03:01:38;;;;;;;5.22;2.75;;;;;;;;;;5052226;28;20148;-36
2021/11/20 03:04:04;;;;;;;4.25;2.17;;;;;;;;;;5052409;28;20063;-35
2021/11/20 03:06:32;;;;;;;4.90;2.92;;;;;;;;;;5052064;28;20098;-37
2021/11/20 03:08:57;;;;;;;6.28;2.83;;;;;;;;;;5053555;28;20032;-36
2021/11/20 03:11:24;;;;;;;5.57;3.00;;;;;;;;;;5035619;28;20068;-37
2021/11/20 03:13:52;;;;;;;5.82;2.72;;;;;;;;;;5052222;28;20036;-36
2021/11/20 03:16:48;;;;;;;7.53;3.22;;;;;;;;;;5035603;28;20032;-36
2021/11/20 03:19:13;;;;;;;16.30;5.75;;;;;;;;;;5035515;28;20155;-36
2021/11/20 03:21:42;;;;;;;11.65;5.13;;;;;;;;;;5053672;28;20437;-37
2021/11/20 03:24:08;;;;;;;12.18;5.60;;;;;;;;;;5053438;28;20436;-36
2021/11/20 03:26:34;;;;;;;11.75;5.30;;;;;;;;;;5052028;28;20049;-36
2021/11/20 03:29:01;;;;;;;17.30;5.18;;;;;;;;;;5051964;28;20056;-36
2021/11/20 03:31:26;;;;;;;17.10;5.60;;;;;;;;;;5052104;28;20060;-36
2021/11/20 03:33:52;;;;;;;12.52;4.63;;;;;;;;;;5035243;28;20169;-36
2021/11/20 03:36:18;;;;;;;7.60;3.53;;;;;;;;;;5053003;28;20154;-36
2021/11/20 03:38:43;;;;;;;8.10;3.97;;;;;;;;;;5035124;28;20029;-36
2021/11/20 03:41:10;;;;;;;5.63;2.65;;;;;;;;;;5051656;28;20090;-36
2021/11/20 03:43:36;;;;;;;4.93;2.67;;;;;;;;;;5052982;28;20029;-36
2021/11/20 03:46:01;;;;;;;4.30;2.53;;;;;;;;;;5053176;28;20031;-36
2021/11/20 03:48:28;;;;;;;5.38;2.45;;;;;;;;;;5034877;28;20594;-36
2021/11/20 03:50:54;;;;;;;7.20;2.50;;;;;;;;;;5053041;28;20040;-36
2021/11/20 03:53:20;;;;;;;11.63;3.63;;;;;;;;;;5051346;28;20041;-36
2021/11/20 03:55:48;;;;;;;3.85;2.22;;;;;;;;;;5051508;28;20043;-36
2021/11/20 03:58:14;;;;;;;5.32;2.58;;;;;;;;;;5052645;28;20083;-36
2021/11/20 04:01:00;;;;;;;6.00;2.58;;;;;;;;;;5047810;28;20052;-36
2021/11/20 04:03:29;;;;;;;4.72;2.42;;;;;;;;;;5033055;28;20087;-36
2021/11/20 04:05:56;;;;;;;5.22;2.80;;;;;;;;;;5031351;28;20462;-36
2021/11/20 04:08:21;;;;;;;8.15;3.63;;;;;;;;;;5032556;28;20088;-36
2021/11/20 04:10:58;;;;;;;7.07;2.45;;;;;;;;;;5031160;28;20079;-36
2021/11/20 04:13:26;;;;;;;6.35;2.95;;;;;;;;;;5031189;28;20440;-36
2021/11/20 04:15:51;;;;;;;3.45;2.60;;;;;;;;;;5014737;28;20032;-36
2021/11/20 04:18:17;;;;;;;2.50;2.08;;;;;;;;;;5031689;28;20116;-36
2021/11/20 04:20:43;;;;;;;4.05;2.83;;;;;;;;;;5031134;28;20017;-36
2021/11/20 04:23:08;;;;;;;3.67;2.22;;;;;;;;;;5030912;28;20037;-36
2021/11/20 04:25:34;;;;;;;6.15;2.17;;;;;;;;;;5031057;28;20159;-36
2021/11/20 04:28:00;;;;;;;5.95;3.08;;;;;;;;;;5032123;28;20146;-36
2021/11/20 04:30:39;;;;;;;7.47;3.15;;;;;;;;;;5030996;28;20403;-36
2021/11/20 04:33:05;;;;;;;4.68;2.53;;;;;;;;;;5030725;28;20025;-36
2021/11/20 04:35:31;;;;;;;4.88;2.85;;;;;;;;;;5030819;28;20082;-36
2021/11/20 04:37:56;;;;;;;4.18;2.40;;;;;;;;;;5030774;28;20124;-36
2021/11/20 04:40:22;;;;;;;4.32;2.30;;;;;;;;;;5032180;28;20033;-36
2021/11/20 04:42:48;;;;;;;6.88;4.38;;;;;;;;;;5030751;28;20506;-36
2021/11/20 04:45:15;;;;;;;6.90;3.20;;;;;;;;;;5031891;28;20025;-36
2021/11/20 04:47:41;;;;;;;8.10;4.10;;;;;;;;;;5014246;28;20045;-36
2021/11/20 04:50:14;;;;;;;5.95;2.95;;;;;;;;;;5030476;28;20045;-36
2021/11/20 04:52:39;;;;;;;4.32;2.90;;;;;;;;;;5031856;28;20056;-36
2021/11/20 04:55:06;;;;;;;3.10;2.25;;;;;;;;;;5030525;28;20044;-36
2021/11/20 04:57:35;;;;;;;5.55;2.75;;;;;;;;;;5014311;28;20021;-36
2021/11/20 05:00:02;;;;;;;6.32;2.50;;;;;;;;;;5030277;28;20056;-36
2021/11/20 05:02:36;;;;;;;4.80;2.50;;;;;;;;;;5030280;28;20052;-36
2021/11/20 05:05:03;;;;;;;5.40;2.67;;;;;;;;;;5031703;28;20041;-36
2021/11/20 05:07:30;;;;;;;5.40;2.83;;;;;;;;;;5030316;28;20022;-36
2021/11/20 05:09:55;;;;;;;4.45;2.28;;;;;;;;;;5030280;28;20104;-36
2021/11/20 05:12:22;;;;;;;5.40;2.22;;;;;;;;;;5030115;28;20038;-36
2021/11/20 05:14:48;;;;;;;3.03;1.83;;;;;;;;;;5030158;28;20033;-36
2021/11/20 05:17:13;;;;;;;4.03;1.92;;;;;;;;;;5031360;28;20021;-36
2021/11/20 05:19:40;;;;;;;3.70;2.40;;;;;;;;;;5030219;28;20099;-36
2021/11/20 05:22:05;;;;;;;4.38;2.25;;;;;;;;;;5030050;28;20025;-36
2021/11/20 05:24:33;;;;;;;4.57;1.92;;;;;;;;;;5046765;28;20063;-36
2021/11/20 05:27:01;;;;;;;4.45;2.88;;;;;;;;;;5029973;28;20057;-36
2021/11/20 05:30:15;;;;;;;5.43;2.08;;;;;;;;;;5031231;28;20108;-36
2021/11/20 05:32:15;;;;;;;6.32;2.83;;;;;;;;;;5029469;28;20068;-36
2021/11/20 05:34:44;;;;;;;3.17;2.08;;;;;;;;;;5030049;28;20022;-36
2021/11/20 05:37:14;;;;;;;4.53;2.47;;;;;;;;;;5029807;28;20025;-36
2021/11/20 05:39:40;;;;;;;4.72;2.65;;;;;;;;;;5029923;28;20030;-36
2021/11/20 05:42:06;;;;;;;2.92;2.42;;;;;;;;;;5031191;28;20036;-36
2021/11/20 05:44:32;;;;;;;5.68;2.47;;;;;;;;;;5031196;28;20547;-36
2021/11/20 05:47:04;;;;;;;2.63;2.10;;;;;;;;;;5029806;28;20033;-36
2021/11/20 05:49:35;;;;;;;4.15;2.08;;;;;;;;;;5029843;28;20069;-36
2021/11/20 05:52:04;;;;;;;3.67;2.03;;;;;;;;;;5029794;28;20075;-36
2021/11/20 05:54:30;;;;;;;3.63;1.83;;;;;;;;;;5029717;28;20556;-36
2021/11/20 05:57:03;;;;;;;;;;;;;;;;;;5030262;28;20128;-35
2021/11/20 05:59:31;;;;;;;4.68;2.95;;;;;;;;;;5031797;28;19909;-36
2021/11/20 06:01:59;;;;;;;4.13;2.33;;;;;;;;;;5033052;28;20083;-39
2021/11/20 06:04:31;;;;;;;4.88;3.10;;;;;;;;;;5049598;28;20079;-36
2021/11/20 06:06:56;;;;;;;2.90;2.38;;;;;;;;;;5032935;28;20029;-36
2021/11/20 06:09:22;;;;;;;2.92;1.77;;;;;;;;;;5032986;28;20021;-36
2021/11/20 06:11:47;;;;;;;3.83;2.03;;;;;;;;;;5032886;28;20045;-36
2021/11/20 06:14:13;;;;;;;3.13;1.85;;;;;;;;;;5050762;28;20110;-37
2021/11/20 06:16:39;;;;;;;3.33;2.40;;;;;;;;;;5050754;28;20037;-36
2021/11/20 06:19:05;;;;;;;3.60;2.58;;;;;;;;;;5032864;28;20024;-36
2021/11/20 06:21:32;;;;;;;3.78;2.47;;;;;;;;;;5049537;28;20399;-36
2021/11/20 06:23:59;;;;;;;5.05;2.53;;;;;;;;;;5049386;28;20021;-36
2021/11/20 06:26:25;;;;;;;4.63;2.42;;;;;;;;;;5032763;28;20124;-36
2021/11/20 06:28:51;;;;;;;3.08;2.08;;;;;;;;;;5032788;28;20116;-36
2021/11/20 06:31:21;;;;;;;2.50;1.77;;;;;;;;;;5032583;28;20052;-36
2021/11/20 06:34:00;;;;;;;3.22;1.88;;;;;;;;;;5049374;28;20031;-36
2021/11/20 06:37:01;;;;;;;4.20;1.83;;;;;;;;;;4969585;28;20218;-36
2021/11/20 06:39:45;;;;;;;5.43;1.90;;;;;;;;;;5044106;28;20044;-36
2021/11/20 06:42:11;;;;;;;5.50;2.25;;;;;;;;;;5052012;28;20040;-36
2021/11/20 06:44:37;;;;;;;6.43;1.92;;;;;;;;;;5052862;28;20024;-35
2021/11/20 06:47:03;;;;;;;2.85;2.10;;;;;;;;;;5052797;28;20036;-36
2021/11/20 06:49:30;;;;;;;6.80;2.55;;;;;;;;;;5035976;28;20013;-36
2021/11/20 06:51:57;;;;;;;4.97;2.35;;;;;;;;;;5053975;28;20395;-41
2021/11/20 06:54:41;;;;;;;4.28;2.40;;;;;;;;;;5054226;28;20660;-35
2021/11/20 07:00:35;;;;;;;5.90;2.63;;;;;;;;;;4984068;28;19968;-36
2021/11/20 07:03:13;;;;;;;6.30;2.90;;;;;;;;;;5017769;28;20083;-41
2021/11/20 07:05:42;;;;;;;4.90;3.67;;;;;;;;;;5052344;28;20124;-35
2021/11/20 07:08:08;;;;;;;5.43;3.53;;;;;;;;;;5053643;28;20024;-36
2021/11/20 07:10:34;;;;;;;6.20;3.35;;;;;;;;;;5053609;28;20055;-36
2021/11/20 07:13:00;;;;;;;3.40;2.22;;;;;;;;;;5053563;28;20483;-36
2021/11/20 07:15:26;;;;;;;4.90;3.28;;;;;;;;;;5035595;28;20036;-36
2021/11/20 07:17:52;;;;;;;7.50;4.22;;;;;;;;;;5052095;28;20025;-36
2021/11/20 07:20:50;;;;;;;6.97;3.58;;;;;;;;;;5009181;28;20064;-35
2021/11/20 07:23:45;;;;;;;6.05;2.33;;;;;;;;;;4998954;28;20073;-36
2021/11/20 07:26:10;;;;;;;6.63;3.20;;;;;;;;;;5051876;28;20550;-36
2021/11/20 07:28:37;;;;;;;5.57;3.03;;;;;;;;;;5052101;28;20128;-35
2021/11/20 07:31:04;;;;;;;9.30;3.70;;;;;;;;;;5035204;28;20061;-35
2021/11/20 07:33:33;;;;;;;13.50;3.40;;;;;;;;;;5051852;28;20116;-35
2021/11/20 07:36:00;;;;;;;8.25;3.45;;;;;;;;;;5035260;28;20121;-36
2021/11/20 07:38:29;;;;;;;11.35;3.53;;;;;;;;;;5035159;28;20031;-35
2021/11/20 07:40:54;;;;;;;12.52;3.58;;;;;;;;;;5051739;28;20093;-36
2021/11/20 07:43:21;;;;;;;8.85;4.30;;;;;;;;;;5053206;28;20095;-35
2021/11/20 07:46:06;;;;;;;6.15;2.85;;;;;;;;;;5053390;28;20075;-35
2021/11/20 07:48:35;;;;;;;5.32;2.30;;;;;;;;;;5034879;28;20029;-36
2021/11/20 07:51:04;;;;;;;4.15;1.92;;;;;;;;;;5051571;28;20364;-36
2021/11/20 07:53:43;;;;;;;4.88;2.58;;;;;;;;;;5050383;28;20430;-35
2021/11/20 07:56:10;;;;;;;7.40;3.13;;;;;;;;;;5034855;28;20114;-36
2021/11/20 07:58:38;;;;;;;2.08;1.50;;;;;;;;;;5053016;28;20463;-36
2021/11/20 08:01:05;;;;;;;2.53;1.60;;;;;;;;;;5051231;28;20052;-35
2021/11/20 08:03:33;;;;;;;4.35;1.80;;;;;;;;;;5034727;28;20068;-36
2021/11/20 08:06:29;;;;;;;11.05;2.97;;;;;;;;;;5015311;28;20042;-36
2021/11/20 08:09:13;;;;;;;6.50;2.72;;;;;;;;;;5052784;28;20508;-35
2021/11/20 08:11:48;;;;;;;7.25;2.40;;;;;;;;;;5051085;28;20136;-35
2021/11/20 08:14:15;;;;;;;10.68;2.33;;;;;;;;;;5051141;28;20120;-35
2021/11/20 08:16:52;;;;;;;6.60;2.63;;;;;;;;;;5050948;28;20124;-35
2021/11/20 08:19:50;;;;;;;6.05;2.10;;;;;;;;;;5018391;28;20033;-36
2021/11/20 08:22:35;;;;;;;6.47;1.90;;;;;;;;;;5052613;28;20090;-36
2021/11/20 08:25:05;;;;;;;3.40;1.80;;;;;;;;;;5034285;28;20021;-35
2021/11/20 08:27:30;;;;;;;3.60;2.08;;;;;;;;;;5050827;28;20029;-35
2021/11/20 08:30:08;;;;;;;3.30;1.95;;;;;;;;;;5034191;28;20032;-35
2021/11/20 08:32:46;;;;;;;5.35;1.85;;;;;;;;;;5034193;28;20090;-36
2021/11/20 08:35:18;;;;;;;7.72;2.45;;;;;;;;;;5050671;28;20029;-36
2021/11/20 08:38:16;;;;;;;8.55;2.35;;;;;;;;;;5018078;28;20032;-36
2021/11/20 08:40:53;;;;;;;2.28;1.50;;;;;;;;;;5050700;28;20032;-36
2021/11/20 08:43:28;;;;;;;3.08;1.77;;;;;;;;;;5051787;28;20450;-36
2021/11/20 08:45:57;;;;;;;3.50;1.73;;;;;;;;;;5034088;28;20032;-36
2021/11/20 08:48:23;;;;;;;6.05;2.00;;;;;;;;;;5050275;28;20387;-36
2021/11/20 08:50:54;;;;;;;3.83;1.77;;;;;;;;;;5033906;28;20037;-36
2021/11/20 08:53:21;;;;;;;3.35;1.98;;;;;;;;;;5050337;28;20029;-36
2021/11/20 08:55:47;;;;;;;6.15;2.10;;;;;;;;;;5050423;28;20071;-36
2021/11/20 08:58:38;;;;;;;2.85;1.92;;;;;;;;;;5045876;28;20043;-36
2021/11/20 09:01:11;;;;;;;3.67;1.40;;;;;;;;;;5050179;28;20045;-36
2021/11/20 09:03:57;;;;;;;4.07;1.60;;;;;;;;;;5033293;28;20061;-36
2021/11/20 09:06:30;;;;;;;3.53;1.80;;;;;;;;;;5050033;28;20025;-36
2021/11/20 09:08:56;;;;;;;4.38;2.80;;;;;;;;;;5050166;28;20043;-36
2021/11/20 09:11:29;;;;;;;4.00;2.13;;;;;;;;;;5051353;28;20535;-36
2021/11/20 09:14:20;;;;;;;9.40;3.85;;;;;;;;;;5051356;28;20383;-36
2021/11/20 09:17:13;;;;;;;7.68;2.72;;;;;;;;;;5047200;28;20432;-36
2021/11/20 09:19:40;;;;;;;9.30;4.32;;;;;;;;;;5033770;28;20386;-36
2021/11/20 09:22:06;;;;;;;5.22;2.75;;;;;;;;;;5050007;28;20495;-35
2021/11/20 09:24:52;;;;;;;7.32;3.25;;;;;;;;;;5050722;28;20477;-36
2021/11/20 09:27:26;;;;;;;7.63;3.95;;;;;;;;;;5051166;28;20032;-36
2021/11/20 09:29:53;;;;;;;7.65;3.63;;;;;;;;;;5033383;28;20029;-35
2021/11/20 09:32:19;;;;;;;8.32;3.55;;;;;;;;;;5033175;28;20051;-36
2021/11/20 09:34:45;;;;;;;10.70;4.35;;;;;;;;;;5049861;28;20029;-36
2021/11/20 09:37:24;;;;;;;7.93;4.18;;;;;;;;;;5033104;28;20064;-36
2021/11/20 09:40:14;;;;;;;12.57;4.28;;;;;;;;;;5045291;28;20029;-36
2021/11/20 09:42:46;;;;;;;6.30;3.35;;;;;;;;;;5051129;28;20033;-36
2021/11/20 09:45:19;;;;;;;5.25;2.55;;;;;;;;;;5049734;28;20037;-35
2021/11/20 09:47:53;;;;;;;3.10;1.80;;;;;;;;;;5049737;28;20442;-36
2021/11/20 09:50:25;;;;;;;4.30;1.75;;;;;;;;;;5049549;28;20409;-36
2021/11/20 09:52:51;;;;;;;4.70;2.40;;;;;;;;;;5049882;28;20029;-36
2021/11/20 09:55:22;;;;;;;3.45;2.08;;;;;;;;;;5051186;28;20032;-36
2021/11/20 09:57:54;;;;;;;4.18;2.97;;;;;;;;;;5051020;28;20033;-36
2021/11/20 10:00:38;;;;;;;3.53;3.10;;;;;;;;;;5050839;28;20203;-36
2021/11/20 10:03:07;;;;;;;6.78;2.10;;;;;;;;;;5050822;28;20155;-36
2021/11/20 10:05:35;;;;;;;10.38;2.70;;;;;;;;;;5050828;28;20471;-36
2021/11/20 10:08:04;;;;;;;1.70;1.05;;;;;;;;;;5051139;28;20104;-37
2021/11/20 10:10:35;;;;;;;1.58;1.48;;;;;;;;;;5032829;28;20095;-36
2021/11/20 10:13:03;;;;;;;1.83;1.25;;;;;;;;;;5032913;28;20116;-36
2021/11/20 10:15:52;;;;;;;2.88;1.63;;;;;;;;;;5051284;28;20479;-36
2021/11/20 10:18:23;;;;;;;1.77;1.10;;;;;;;;;;5053864;28;20037;-36
2021/11/20 10:20:52;;;;;;;1.60;1.50;;;;;;;;;;5054609;28;20032;-36
2021/11/20 10:23:37;;;;;;;0.98;0.95;;;;;;;;;;5054529;28;20087;-36
2021/11/20 10:26:15;;;;;;;2.35;1.45;;;;;;;;;;5054358;28;20049;-36
2021/11/20 10:28:59;;;;;;;3.28;1.27;;;;;;;;;;5054529;28;20033;-36
2021/11/20 10:31:27;;;;;;;1.38;1.00;;;;;;;;;;5052951;28;20033;-36
2021/11/20 10:33:59;;;;;;;2.30;1.30;;;;;;;;;;5054427;28;20074;-36
2021/11/20 10:36:32;;;;;;;2.28;1.35;;;;;;;;;;5054051;28;20052;-36
2021/11/20 10:39:10;;;;;;;1.48;1.25;;;;;;;;;;5054267;28;20025;-36
2021/11/20 10:41:35;;;;;;;1.58;1.15;;;;;;;;;;5054333;28;20025;-36
2021/11/20 10:44:10;;;;;;;2.50;1.27;;;;;;;;;;5054201;28;20028;-36
2021/11/20 10:46:55;;;;;;;3.72;1.42;;;;;;;;;;5053974;28;20144;-36
2021/11/20 10:49:20;;;;;;;1.35;0.75;;;;;;;;;;5054009;28;20064;-37
2021/11/20 10:52:04;;;;;;;1.92;0.90;;;;;;;;;;5053990;28;20061;-36
2021/11/20 10:54:59;;;;;;;2.90;1.20;;;;;;;;;;5053893;28;20028;-36
2021/11/20 10:57:27;;;;;;;1.45;1.05;;;;;;;;;;5044869;28;20056;-36
2021/11/20 11:00:05;;;;;;;2.53;1.13;;;;;;;;;;5053910;28;20053;-36
2021/11/20 11:02:46;;;;;;;1.52;1.02;;;;;;;;;;5053755;28;20056;-36
2021/11/20 11:05:12;;;;;;;1.75;1.00;;;;;;;;;;5053711;28;20037;-36
2021/11/20 11:07:53;;;;;;;1.35;1.25;;;;;;;;;;5053642;28;20021;-36
2021/11/20 11:10:23;;;;;;;2.78;1.30;;;;;;;;;;5053648;28;20021;-36
2021/11/20 11:12:54;;;;;;;2.67;1.33;;;;;;;;;;5053793;28;20059;-36
2021/11/20 11:15:27;;;;;;;1.45;1.15;;;;;;;;;;5035565;28;20040;-36
2021/11/20 11:18:11;;;;;;;2.58;1.63;;;;;;;;;;5053464;28;20112;-37
2021/11/20 11:20:43;;;;;;;1.45;1.02;;;;;;;;;;5052225;28;20029;-36
2021/11/20 11:23:08;;;;;;;1.67;1.10;;;;;;;;;;5035555;28;20353;-35
2021/11/20 11:25:37;;;;;;;1.98;0.93;;;;;;;;;;5053333;28;20074;-36
2021/11/20 11:28:13;;;;;;;2.03;1.40;;;;;;;;;;5034972;28;20060;-36
2021/11/20 11:30:42;;;;;;;1.42;1.30;;;;;;;;;;5053363;28;20036;-36
2021/11/20 11:33:07;;;;;;;7.18;1.42;;;;;;;;;;5053197;28;20021;-36
2021/11/20 11:35:33;;;;;;;2.88;1.27;;;;;;;;;;5053123;28;20124;-36
2021/11/20 11:38:14;;;;;;;4.65;1.77;;;;;;;;;;5053110;28;20463;-36
2021/11/20 11:40:52;;;;;;;2.88;1.13;;;;;;;;;;5053193;28;20074;-36
2021/11/20 11:43:24;;;;;;;3.55;1.75;;;;;;;;;;5052883;28;20475;-36
2021/11/20 11:46:01;;;;;;;1.23;1.02;;;;;;;;;;5053099;28;20029;-36
2021/11/20 11:48:45;;;;;;;3.13;2.08;;;;;;;;;;5052822;28;20029;-36
2021/11/20 11:51:17;;;;;;;3.08;1.50;;;;;;;;;;5034997;28;20033;-36
2021/11/20 11:53:52;;;;;;;5.32;1.58;;;;;;;;;;5052896;28;20033;-36
2021/11/20 11:56:31;;;;;;;3.45;0.95;;;;;;;;;;5052998;28;20025;-36
2021/11/20 11:59:10;;;;;;;6.80;1.65;;;;;;;;;;5052842;28;20104;-36
2021/11/20 12:01:41;;;;;;;2.97;1.35;;;;;;;;;;5052393;28;20408;-36
2021/11/20 12:04:10;;;;;;;8.23;2.22;;;;;;;;;;5052846;28;20088;-35
2021/11/20 12:06:52;;;;;;;4.85;1.75;;;;;;;;;;5052745;28;20104;-36
2021/11/20 12:09:21;;;;;;;5.70;2.22;;;;;;;;;;5052604;28;20040;-36
2021/11/20 12:11:47;;;;;;;4.60;2.15;;;;;;;;;;5052402;28;20295;-36
2021/11/20 12:14:13;;;;;;;4.47;2.35;;;;;;;;;;5052430;28;20025;-36
2021/11/20 12:16:47;;;;;;;4.07;1.92;;;;;;;;;;5052517;28;20082;-36
2021/11/20 12:19:24;;;;;;;9.73;2.20;;;;;;;;;;5052849;28;20098;-36
2021/11/20 12:21:59;;;;;;;4.70;2.40;;;;;;;;;;5052535;28;20028;-36
2021/11/20 12:24:25;;;;;;;6.78;2.45;;;;;;;;;;5052195;28;20039;-36
2021/11/20 12:26:54;;;;;;;3.92;2.17;;;;;;;;;;5051026;28;20021;-36
2021/11/20 12:29:37;;;;;;;5.45;2.00;;;;;;;;;;5052384;28;20039;-36
2021/11/20 12:32:30;;;;;;;3.22;2.55;;;;;;;;;;5051885;28;20036;-36
2021/11/20 12:35:01;;;;;;;4.10;2.20;;;;;;;;;;5050061;28;20499;-37
2021/11/20 12:37:33;;;;;;;7.28;2.40;;;;;;;;;;5051857;28;20033;-36
2021/11/20 12:40:05;;;;;;;4.53;3.03;;;;;;;;;;5051459;28;20021;-36
2021/11/20 12:42:36;;;;;;;7.50;2.85;;;;;;;;;;5051828;28;20106;-36
2021/11/20 12:45:02;;;;;;;7.60;3.75;;;;;;;;;;5051970;28;20032;-36
2021/11/20 12:47:38;;;;;;;15.10;3.38;;;;;;;;;;5051675;28;20048;-36
2021/11/20 12:50:07;;;;;;;9.65;3.72;;;;;;;;;;5052016;28;20024;-36
2021/11/20 12:52:33;;;;;;;7.43;3.13;;;;;;;;;;5051550;28;20029;-36
2021/11/20 12:54:59;;;;;;;8.88;3.83;;;;;;;;;;5051707;28;20021;-36
2021/11/20 12:57:39;;;;;;;9.70;4.45;;;;;;;;;;5051528;28;20031;-36
2021/11/20 13:00:07;;;;;;;12.80;3.42;;;;;;;;;;5051458;28;20077;-36
2021/11/20 13:02:34;;;;;;;8.27;4.50;;;;;;;;;;5051462;28;20067;-36
2021/11/20 13:05:08;;;;;;;12.27;4.05;;;;;;;;;;5051579;28;20090;-36
2021/11/20 13:07:35;;;;;;;10.80;4.57;;;;;;;;;;5051673;28;20426;-36
2021/11/20 13:10:16;;;;;;;10.27;4.18;;;;;;;;;;5051500;28;20052;-36
2021/11/20 13:12:59;;;;;;;14.93;4.18;;;;;;;;;;5051392;28;20847;-36
2021/11/20 13:15:48;;;;;;;8.23;3.47;;;;;;;;;;5051586;28;20120;-36
2021/11/20 13:18:27;;;;;;;13.30;3.90;;;;;;;;;;5045773;28;20051;-36
2021/11/20 13:20:53;;;;;;;10.00;3.95;;;;;;;;;;5051275;28;20032;-36
2021/11/20 13:23:20;;;;;;;6.60;3.55;;;;;;;;;;5051324;28;20379;-36
2021/11/20 13:25:54;;;;;;;9.57;4.97;;;;;;;;;;5051239;28;20036;-36
2021/11/20 13:28:20;;;;;;;6.80;3.83;;;;;;;;;;5051390;28;20032;-36
2021/11/20 13:30:46;;;;;;;9.05;4.20;;;;;;;;;;5033342;28;20455;-36
2021/11/20 13:33:11;;;;;;;8.57;3.72;;;;;;;;;;5051442;28;20037;-36
2021/11/20 13:35:40;;;;;;;7.95;3.90;;;;;;;;;;5051346;28;20023;-36
2021/11/20 13:38:07;;;;;;;10.45;3.53;;;;;;;;;;5051138;28;20493;-36
2021/11/20 13:40:37;;;;;;;5.72;3.70;;;;;;;;;;5051042;28;20013;-36
2021/11/20 13:43:09;;;;;;;11.57;4.53;;;;;;;;;;5051195;28;20112;-36
2021/11/20 13:45:34;;;;;;;6.70;3.55;;;;;;;;;;5033158;28;20539;-36
2021/11/20 13:48:00;;;;;;;8.18;3.70;;;;;;;;;;5051194;28;20112;-36
2021/11/20 13:50:35;;;;;;;12.82;5.03;;;;;;;;;;5052894;28;20025;-36
2021/11/20 13:53:00;;;;;;;7.55;3.83;;;;;;;;;;5055229;28;20063;-36
2021/11/20 13:55:26;;;;;;;8.77;4.75;;;;;;;;;;5055260;28;20025;-36
2021/11/20 13:57:51;;;;;;;8.02;4.68;;;;;;;;;;5054978;28;20040;-36
2021/11/20 14:00:21;;;;;;;10.55;4.65;;;;;;;;;;5054980;28;20053;-37
2021/11/20 14:02:48;;;;;;;8.20;3.58;;;;;;;;;;5054978;28;20021;-36
2021/11/20 14:05:14;;;;;;;11.05;5.05;;;;;;;;;;5054911;28;20033;-36
2021/11/20 14:07:39;;;;;;;8.20;4.47;;;;;;;;;;5054828;28;20036;-36
2021/11/20 14:10:12;;;;;;;10.27;4.30;;;;;;;;;;5054967;28;20056;-37
2021/11/20 14:12:50;;;;;;;10.32;4.05;;;;;;;;;;5054613;28;20033;-36
2021/11/20 14:15:16;;;;;;;9.10;4.50;;;;;;;;;;5036904;28;20029;-36
2021/11/20 14:17:41;;;;;;;7.25;4.47;;;;;;;;;;5054634;28;20048;-36
2021/11/20 14:20:08;;;;;;;7.53;4.68;;;;;;;;;;5054631;28;20029;-36
2021/11/20 14:22:38;;;;;;;10.95;4.10;;;;;;;;;;5054491;28;20028;-36
2021/11/20 14:25:06;;;;;;;8.95;5.13;;;;;;;;;;5054457;28;20571;-36
2021/11/20 14:27:33;;;;;;;11.45;4.53;;;;;;;;;;5036582;28;20078;-36
2021/11/20 14:29:58;;;;;;;7.80;4.07;;;;;;;;;;5054418;28;20033;-36
2021/11/20 14:32:24;;;;;;;12.00;4.68;;;;;;;;;;5054448;28;20037;-36
2021/11/20 14:34:50;;;;;;;7.60;4.13;;;;;;;;;;5054459;28;20025;-36
2021/11/20 14:37:23;;;;;;;10.25;4.72;;;;;;;;;;5054414;28;20032;-36
2021/11/20 14:39:48;;;;;;;;;;;;;;;;;;5054662;28;20025;-36
2021/11/20 14:42:14;;;;;;;11.43;5.50;;;;;;;;;;5054189;28;20403;-36
2021/11/20 14:44:40;;;;;;;10.68;4.85;;;;;;;;;;5054463;28;20036;-36
2021/11/20 14:47:07;;;;;;;9.55;5.05;;;;;;;;;;5054080;28;20048;-36
2021/11/20 14:49:36;;;;;;;9.77;4.93;;;;;;;;;;5053962;28;20112;-36
2021/11/20 14:52:22;;;;;;;7.72;4.60;;;;;;;;;;5054023;28;20484;-36
2021/11/20 14:54:51;;;;;;;9.60;4.63;;;;;;;;;;5053996;28;20095;-36
2021/11/20 14:57:17;;;;;;;14.70;5.93;;;;;;;;;;5054146;28;20028;-36
2021/11/20 14:59:43;;;;;;;10.77;5.05;;;;;;;;;;5053666;28;20074;-36
2021/11/20 15:02:10;;;;;;;12.40;5.90;;;;;;;;;;5053512;28;20036;-36
2021/11/20 15:04:36;;;;;;;11.00;5.65;;;;;;;;;;5053943;28;20080;-37
2021/11/20 15:07:01;;;;;;;12.20;5.75;;;;;;;;;;5053717;28;20071;-36
2021/11/20 15:09:27;;;;;;;12.52;6.13;;;;;;;;;;5053639;28;20025;-36
2021/11/20 15:11:53;;;;;;;13.60;5.13;;;;;;;;;;5052243;28;20116;-36
2021/11/20 15:14:19;;;;;;;12.88;5.53;;;;;;;;;;5053609;28;20404;-36